sensor_id;sensor_type;location;lat;lon;timestamp;P1;durP1;ratioP1;P2;durP2;ratioP2
34204;SDS011;20471;49.680;20.074;2022-10-18T00:00:02;16.15;;;9.68;;
34204;SDS011;20471;49.680;20.074;2022-10-18T00:02:32;14.93;;;9.33;;
34204;SDS011;20471;49.680;20.074;2022-10-18T00:04:59;14.65;;;9.15;;
34204;SDS011;20471;49.680;20.074;2022-10-18T00:07:25;16.20;;;9.98;;
34204;SDS011;20471;49.680;20.074;2022-10-18T00:09:52;13.05;;;9.03;;
34204;SDS011;20471;49.680;20.074;2022-10-18T00:12:19;14.93;;;8.93;;
34204;SDS011;20471;49.680;20.074;2022-10-18T00:14:47;14.70;;;9.90;;
34204;SDS011;20471;49.680;20.074;2022-10-18T00:17:15;15.05;;;8.95;;
34204;SDS011;20471;49.680;20.074;2022-10-18T00:19:42;11.80;;;8.80;;
34204;SDS011;20471;49.680;20.074;2022-10-18T00:22:08;13.93;;;8.75;;
34204;SDS011;20471;49.680;20.074;2022-10-18T00:24:35;14.87;;;9.20;;
34204;SDS011;20471;49.680;20.074;2022-10-18T00:27:01;14.23;;;8.70;;
34204;SDS011;20471;49.680;20.074;2022-10-18T00:29:28;15.53;;;9.65;;
34204;SDS011;20471;49.680;20.074;2022-10-18T00:31:54;11.97;;;8.93;;
34204;SDS011;20471;49.680;20.074;2022-10-18T00:34:21;14.93;;;8.35;;
34204;SDS011;20471;49.680;20.074;2022-10-18T00:36:47;12.60;;;9.75;;
34204;SDS011;20471;49.680;20.074;2022-10-18T00:39:15;14.85;;;9.00;;
34204;SDS011;20471;49.680;20.074;2022-10-18T00:41:44;11.50;;;8.83;;
34204;SDS011;20471;49.680;20.074;2022-10-18T00:46:45;13.90;;;8.20;;
34204;SDS011;20471;49.680;20.074;2022-10-18T00:49:33;10.63;;;8.40;;
34204;SDS011;20471;49.680;20.074;2022-10-18T00:52:02;11.57;;;9.13;;
34204;SDS011;20471;49.680;20.074;2022-10-18T00:54:39;10.88;;;8.50;;
34204;SDS011;20471;49.680;20.074;2022-10-18T00:57:07;11.78;;;8.45;;
34204;SDS011;20471;49.680;20.074;2022-10-18T00:59:35;11.65;;;8.58;;
34204;SDS011;20471;49.680;20.074;2022-10-18T01:02:03;13.53;;;8.70;;
34204;SDS011;20471;49.680;20.074;2022-10-18T01:04:32;13.65;;;8.85;;
34204;SDS011;20471;49.680;20.074;2022-10-18T01:07:05;11.33;;;8.90;;
34204;SDS011;20471;49.680;20.074;2022-10-18T01:10:02;11.38;;;8.95;;
34204;SDS011;20471;49.680;20.074;2022-10-18T01:16:10;11.70;;;8.25;;
34204;SDS011;20471;49.680;20.074;2022-10-18T01:22:05;12.25;;;8.08;;
34204;SDS011;20471;49.680;20.074;2022-10-18T01:27:09;11.33;;;8.60;;
34204;SDS011;20471;49.680;20.074;2022-10-18T01:32:57;12.30;;;8.25;;
34204;SDS011;20471;49.680;20.074;2022-10-18T01:35:29;9.83;;;7.90;;
34204;SDS011;20471;49.680;20.074;2022-10-18T01:37:59;12.18;;;8.03;;
34204;SDS011;20471;49.680;20.074;2022-10-18T01:40:30;15.20;;;9.73;;
34204;SDS011;20471;49.680;20.074;2022-10-18T01:43:00;10.35;;;8.45;;
34204;SDS011;20471;49.680;20.074;2022-10-18T01:45:28;12.23;;;8.30;;
34204;SDS011;20471;49.680;20.074;2022-10-18T01:47:57;13.20;;;9.18;;
34204;SDS011;20471;49.680;20.074;2022-10-18T01:50:29;12.05;;;8.40;;
34204;SDS011;20471;49.680;20.074;2022-10-18T01:52:58;13.95;;;8.83;;
34204;SDS011;20471;49.680;20.074;2022-10-18T01:55:28;10.53;;;8.50;;
34204;SDS011;20471;49.680;20.074;2022-10-18T02:01:03;15.30;;;8.53;;
34204;SDS011;20471;49.680;20.074;2022-10-18T02:03:33;12.58;;;8.33;;
34204;SDS011;20471;49.680;20.074;2022-10-18T02:06:07;14.95;;;8.10;;
34204;SDS011;20471;49.680;20.074;2022-10-18T02:11:13;11.60;;;8.18;;
34204;SDS011;20471;49.680;20.074;2022-10-18T02:13:43;14.13;;;7.70;;
34204;SDS011;20471;49.680;20.074;2022-10-18T02:16:20;10.03;;;8.00;;
34204;SDS011;20471;49.680;20.074;2022-10-18T02:18:54;11.33;;;8.08;;
34204;SDS011;20471;49.680;20.074;2022-10-18T02:21:30;9.90;;;8.33;;
34204;SDS011;20471;49.680;20.074;2022-10-18T02:23:58;11.43;;;8.05;;
34204;SDS011;20471;49.680;20.074;2022-10-18T02:26:27;13.70;;;9.20;;
34204;SDS011;20471;49.680;20.074;2022-10-18T02:28:55;14.30;;;8.45;;
34204;SDS011;20471;49.680;20.074;2022-10-18T02:31:26;9.55;;;8.38;;
34204;SDS011;20471;49.680;20.074;2022-10-18T02:36:53;14.98;;;8.03;;
34204;SDS011;20471;49.680;20.074;2022-10-18T02:39:29;13.15;;;8.48;;
34204;SDS011;20471;49.680;20.074;2022-10-18T02:42:11;12.23;;;8.03;;
34204;SDS011;20471;49.680;20.074;2022-10-18T02:44:39;14.23;;;9.58;;
34204;SDS011;20471;49.680;20.074;2022-10-18T02:47:06;12.55;;;8.95;;
34204;SDS011;20471;49.680;20.074;2022-10-18T02:49:35;17.07;;;10.53;;
34204;SDS011;20471;49.680;20.074;2022-10-18T02:52:01;13.05;;;9.00;;
34204;SDS011;20471;49.680;20.074;2022-10-18T02:54:28;18.05;;;9.25;;
34204;SDS011;20471;49.680;20.074;2022-10-18T02:56:55;13.30;;;9.08;;
34204;SDS011;20471;49.680;20.074;2022-10-18T02:59:21;14.10;;;10.03;;
34204;SDS011;20471;49.680;20.074;2022-10-18T03:01:48;20.15;;;12.95;;
34204;SDS011;20471;49.680;20.074;2022-10-18T03:04:14;19.15;;;12.05;;
34204;SDS011;20471;49.680;20.074;2022-10-18T03:06:41;21.10;;;14.60;;
34204;SDS011;20471;49.680;20.074;2022-10-18T03:09:08;20.35;;;14.45;;
34204;SDS011;20471;49.680;20.074;2022-10-18T03:11:34;15.53;;;11.48;;
34204;SDS011;20471;49.680;20.074;2022-10-18T03:14:01;18.67;;;10.40;;
34204;SDS011;20471;49.680;20.074;2022-10-18T03:16:28;12.18;;;9.50;;
34204;SDS011;20471;49.680;20.074;2022-10-18T03:18:55;16.15;;;9.53;;
34204;SDS011;20471;49.680;20.074;2022-10-18T03:21:21;13.30;;;9.50;;
34204;SDS011;20471;49.680;20.074;2022-10-18T03:23:48;15.70;;;11.80;;
34204;SDS011;20471;49.680;20.074;2022-10-18T03:26:14;15.48;;;11.12;;
34204;SDS011;20471;49.680;20.074;2022-10-18T03:28:41;18.20;;;12.90;;
34204;SDS011;20471;49.680;20.074;2022-10-18T03:31:07;16.93;;;13.40;;
34204;SDS011;20471;49.680;20.074;2022-10-18T03:33:34;18.17;;;12.43;;
34204;SDS011;20471;49.680;20.074;2022-10-18T03:36:00;17.37;;;10.35;;
34204;SDS011;20471;49.680;20.074;2022-10-18T03:38:27;17.17;;;10.43;;
34204;SDS011;20471;49.680;20.074;2022-10-18T03:40:54;20.55;;;13.50;;
34204;SDS011;20471;49.680;20.074;2022-10-18T03:43:21;17.70;;;11.88;;
34204;SDS011;20471;49.680;20.074;2022-10-18T03:45:47;14.58;;;11.43;;
34204;SDS011;20471;49.680;20.074;2022-10-18T03:48:14;16.65;;;11.73;;
34204;SDS011;20471;49.680;20.074;2022-10-18T03:50:41;14.03;;;10.43;;
34204;SDS011;20471;49.680;20.074;2022-10-18T03:53:09;16.70;;;11.48;;
34204;SDS011;20471;49.680;20.074;2022-10-18T03:55:36;12.73;;;10.03;;
34204;SDS011;20471;49.680;20.074;2022-10-18T03:58:03;17.52;;;9.95;;
34204;SDS011;20471;49.680;20.074;2022-10-18T04:00:30;11.85;;;8.88;;
34204;SDS011;20471;49.680;20.074;2022-10-18T04:02:56;16.07;;;11.40;;
34204;SDS011;20471;49.680;20.074;2022-10-18T04:05:23;13.58;;;10.48;;
34204;SDS011;20471;49.680;20.074;2022-10-18T04:07:51;14.35;;;11.50;;
34204;SDS011;20471;49.680;20.074;2022-10-18T04:10:19;16.57;;;12.95;;
34204;SDS011;20471;49.680;20.074;2022-10-18T04:12:46;19.25;;;14.25;;
34204;SDS011;20471;49.680;20.074;2022-10-18T04:15:12;19.50;;;15.23;;
34204;SDS011;20471;49.680;20.074;2022-10-18T04:17:39;25.95;;;14.73;;
34204;SDS011;20471;49.680;20.074;2022-10-18T04:20:06;28.15;;;14.18;;
34204;SDS011;20471;49.680;20.074;2022-10-18T04:22:33;21.87;;;14.60;;
34204;SDS011;20471;49.680;20.074;2022-10-18T04:24:59;23.40;;;14.10;;
34204;SDS011;20471;49.680;20.074;2022-10-18T04:27:26;23.95;;;15.28;;
34204;SDS011;20471;49.680;20.074;2022-10-18T04:29:52;24.65;;;16.32;;
34204;SDS011;20471;49.680;20.074;2022-10-18T04:32:19;27.00;;;16.87;;
34204;SDS011;20471;49.680;20.074;2022-10-18T04:34:45;25.50;;;15.45;;
34204;SDS011;20471;49.680;20.074;2022-10-18T04:37:12;28.98;;;15.45;;
34204;SDS011;20471;49.680;20.074;2022-10-18T04:39:39;23.02;;;13.90;;
34204;SDS011;20471;49.680;20.074;2022-10-18T04:42:05;25.77;;;13.95;;
34204;SDS011;20471;49.680;20.074;2022-10-18T04:44:32;23.80;;;13.13;;
34204;SDS011;20471;49.680;20.074;2022-10-18T04:46:59;24.40;;;13.40;;
34204;SDS011;20471;49.680;20.074;2022-10-18T04:49:25;24.25;;;13.20;;
34204;SDS011;20471;49.680;20.074;2022-10-18T04:51:52;23.60;;;13.75;;
34204;SDS011;20471;49.680;20.074;2022-10-18T04:54:18;27.82;;;14.35;;
34204;SDS011;20471;49.680;20.074;2022-10-18T04:56:45;30.15;;;15.43;;
34204;SDS011;20471;49.680;20.074;2022-10-18T04:59:11;43.15;;;20.15;;
34204;SDS011;20471;49.680;20.074;2022-10-18T05:01:38;50.12;;;26.50;;
34204;SDS011;20471;49.680;20.074;2022-10-18T05:04:04;53.33;;;27.17;;
34204;SDS011;20471;49.680;20.074;2022-10-18T05:06:32;51.83;;;25.30;;
34204;SDS011;20471;49.680;20.074;2022-10-18T05:08:58;39.70;;;21.95;;
34204;SDS011;20471;49.680;20.074;2022-10-18T05:11:25;39.83;;;19.20;;
34204;SDS011;20471;49.680;20.074;2022-10-18T05:13:51;52.08;;;27.25;;
34204;SDS011;20471;49.680;20.074;2022-10-18T05:16:18;41.18;;;21.15;;
34204;SDS011;20471;49.680;20.074;2022-10-18T05:18:45;46.80;;;23.12;;
34204;SDS011;20471;49.680;20.074;2022-10-18T05:21:12;56.70;;;29.92;;
34204;SDS011;20471;49.680;20.074;2022-10-18T05:23:38;59.25;;;29.15;;
34204;SDS011;20471;49.680;20.074;2022-10-18T05:26:05;48.00;;;25.35;;
34204;SDS011;20471;49.680;20.074;2022-10-18T05:28:32;43.75;;;21.37;;
34204;SDS011;20471;49.680;20.074;2022-10-18T05:31:00;43.90;;;21.45;;
34204;SDS011;20471;49.680;20.074;2022-10-18T05:33:28;35.80;;;20.08;;
34204;SDS011;20471;49.680;20.074;2022-10-18T05:35:55;31.52;;;17.15;;
34204;SDS011;20471;49.680;20.074;2022-10-18T05:38:22;37.85;;;15.40;;
34204;SDS011;20471;49.680;20.074;2022-10-18T05:40:48;34.03;;;16.50;;
34204;SDS011;20471;49.680;20.074;2022-10-18T05:43:15;36.60;;;18.98;;
34204;SDS011;20471;49.680;20.074;2022-10-18T05:45:48;43.65;;;22.15;;
34204;SDS011;20471;49.680;20.074;2022-10-18T05:48:15;44.27;;;20.55;;
34204;SDS011;20471;49.680;20.074;2022-10-18T05:50:42;37.08;;;19.17;;
34204;SDS011;20471;49.680;20.074;2022-10-18T05:53:09;33.00;;;18.10;;
34204;SDS011;20471;49.680;20.074;2022-10-18T05:55:36;31.40;;;17.32;;
34204;SDS011;20471;49.680;20.074;2022-10-18T05:58:03;37.85;;;17.48;;
34204;SDS011;20471;49.680;20.074;2022-10-18T06:00:29;40.40;;;18.80;;
34204;SDS011;20471;49.680;20.074;2022-10-18T06:02:56;35.92;;;19.48;;
34204;SDS011;20471;49.680;20.074;2022-10-18T06:05:22;32.30;;;18.50;;
34204;SDS011;20471;49.680;20.074;2022-10-18T06:07:49;31.07;;;18.07;;
34204;SDS011;20471;49.680;20.074;2022-10-18T06:10:16;32.17;;;17.82;;
34204;SDS011;20471;49.680;20.074;2022-10-18T06:12:42;35.70;;;20.12;;
34204;SDS011;20471;49.680;20.074;2022-10-18T06:15:09;34.53;;;20.82;;
34204;SDS011;20471;49.680;20.074;2022-10-18T06:17:36;41.48;;;21.42;;
34204;SDS011;20471;49.680;20.074;2022-10-18T06:20:02;44.13;;;23.95;;
34204;SDS011;20471;49.680;20.074;2022-10-18T06:22:30;42.30;;;24.67;;
34204;SDS011;20471;49.680;20.074;2022-10-18T06:24:56;46.37;;;26.40;;
34204;SDS011;20471;49.680;20.074;2022-10-18T06:27:23;49.93;;;30.70;;
34204;SDS011;20471;49.680;20.074;2022-10-18T06:29:50;52.80;;;33.88;;
34204;SDS011;20471;49.680;20.074;2022-10-18T06:32:16;61.92;;;36.30;;
34204;SDS011;20471;49.680;20.074;2022-10-18T06:34:44;67.40;;;42.85;;
34204;SDS011;20471;49.680;20.074;2022-10-18T06:37:11;71.62;;;44.23;;
34204;SDS011;20471;49.680;20.074;2022-10-18T06:39:38;70.50;;;43.70;;
34204;SDS011;20471;49.680;20.074;2022-10-18T06:42:05;71.42;;;42.95;;
34204;SDS011;20471;49.680;20.074;2022-10-18T06:44:32;69.95;;;43.33;;
34204;SDS011;20471;49.680;20.074;2022-10-18T06:46:58;61.68;;;38.88;;
34204;SDS011;20471;49.680;20.074;2022-10-18T06:49:25;60.28;;;39.40;;
34204;SDS011;20471;49.680;20.074;2022-10-18T06:51:52;43.60;;;32.17;;
34204;SDS011;20471;49.680;20.074;2022-10-18T06:54:19;36.58;;;26.40;;
34204;SDS011;20471;49.680;20.074;2022-10-18T06:56:46;39.58;;;25.00;;
34204;SDS011;20471;49.680;20.074;2022-10-18T06:59:12;38.08;;;21.65;;
34204;SDS011;20471;49.680;20.074;2022-10-18T07:01:39;57.17;;;27.52;;
34204;SDS011;20471;49.680;20.074;2022-10-18T07:04:06;47.50;;;19.70;;
34204;SDS011;20471;49.680;20.074;2022-10-18T07:06:32;23.62;;;13.65;;
34204;SDS011;20471;49.680;20.074;2022-10-18T07:08:59;23.80;;;12.98;;
34204;SDS011;20471;49.680;20.074;2022-10-18T07:11:27;17.57;;;10.05;;
34204;SDS011;20471;49.680;20.074;2022-10-18T07:13:57;14.95;;;9.60;;
34204;SDS011;20471;49.680;20.074;2022-10-18T07:16:27;12.53;;;8.95;;
34204;SDS011;20471;49.680;20.074;2022-10-18T07:18:55;14.53;;;9.10;;
34204;SDS011;20471;49.680;20.074;2022-10-18T07:21:22;17.95;;;8.85;;
34204;SDS011;20471;49.680;20.074;2022-10-18T07:23:51;15.35;;;8.75;;
34204;SDS011;20471;49.680;20.074;2022-10-18T07:28:56;27.45;;;14.90;;
34204;SDS011;20471;49.680;20.074;2022-10-18T07:31:32;71.57;;;32.88;;
34204;SDS011;20471;49.680;20.074;2022-10-18T07:33:59;52.27;;;24.82;;
34204;SDS011;20471;49.680;20.074;2022-10-18T07:36:25;40.95;;;21.25;;
34204;SDS011;20471;49.680;20.074;2022-10-18T07:38:52;23.90;;;13.40;;
34204;SDS011;20471;49.680;20.074;2022-10-18T07:41:19;22.65;;;13.40;;
34204;SDS011;20471;49.680;20.074;2022-10-18T07:43:47;18.95;;;11.97;;
34204;SDS011;20471;49.680;20.074;2022-10-18T07:46:16;14.25;;;9.13;;
34204;SDS011;20471;49.680;20.074;2022-10-18T07:48:44;11.08;;;6.50;;
34204;SDS011;20471;49.680;20.074;2022-10-18T07:51:10;9.85;;;6.35;;
34204;SDS011;20471;49.680;20.074;2022-10-18T07:53:38;9.15;;;5.90;;
34204;SDS011;20471;49.680;20.074;2022-10-18T07:56:05;8.15;;;4.78;;
34204;SDS011;20471;49.680;20.074;2022-10-18T07:58:36;7.28;;;5.33;;
34204;SDS011;20471;49.680;20.074;2022-10-18T08:01:03;8.90;;;5.58;;
34204;SDS011;20471;49.680;20.074;2022-10-18T08:03:32;10.13;;;5.33;;
34204;SDS011;20471;49.680;20.074;2022-10-18T08:05:59;9.90;;;5.15;;
34204;SDS011;20471;49.680;20.074;2022-10-18T08:08:26;7.33;;;5.10;;
34204;SDS011;20471;49.680;20.074;2022-10-18T08:10:53;6.85;;;4.45;;
34204;SDS011;20471;49.680;20.074;2022-10-18T08:13:20;7.75;;;4.55;;
34204;SDS011;20471;49.680;20.074;2022-10-18T08:15:47;7.33;;;4.45;;
34204;SDS011;20471;49.680;20.074;2022-10-18T08:18:14;6.12;;;4.85;;
34204;SDS011;20471;49.680;20.074;2022-10-18T08:20:44;7.72;;;4.83;;
34204;SDS011;20471;49.680;20.074;2022-10-18T08:23:11;8.10;;;4.33;;
34204;SDS011;20471;49.680;20.074;2022-10-18T08:25:38;6.33;;;5.15;;
34204;SDS011;20471;49.680;20.074;2022-10-18T08:28:05;9.05;;;4.50;;
34204;SDS011;20471;49.680;20.074;2022-10-18T08:30:33;6.30;;;4.55;;
34204;SDS011;20471;49.680;20.074;2022-10-18T08:33:01;6.25;;;5.08;;
34204;SDS011;20471;49.680;20.074;2022-10-18T08:35:28;7.25;;;4.70;;
34204;SDS011;20471;49.680;20.074;2022-10-18T08:37:56;6.67;;;4.75;;
34204;SDS011;20471;49.680;20.074;2022-10-18T08:40:22;7.72;;;5.10;;
34204;SDS011;20471;49.680;20.074;2022-10-18T08:45:48;4.78;;;3.90;;
34204;SDS011;20471;49.680;20.074;2022-10-18T08:53:58;6.42;;;4.10;;
34204;SDS011;20471;49.680;20.074;2022-10-18T08:56:31;6.10;;;4.37;;
34204;SDS011;20471;49.680;20.074;2022-10-18T08:59:00;4.97;;;4.00;;
34204;SDS011;20471;49.680;20.074;2022-10-18T09:07:25;5.53;;;4.43;;
34204;SDS011;20471;49.680;20.074;2022-10-18T09:10:33;7.72;;;4.60;;
34204;SDS011;20471;49.680;20.074;2022-10-18T09:16:00;6.05;;;4.78;;
34204;SDS011;20471;49.680;20.074;2022-10-18T09:21:16;6.33;;;4.37;;
34204;SDS011;20471;49.680;20.074;2022-10-18T09:24:14;5.85;;;3.92;;
34204;SDS011;20471;49.680;20.074;2022-10-18T09:26:42;6.15;;;4.67;;
34204;SDS011;20471;49.680;20.074;2022-10-18T09:29:20;4.92;;;4.40;;
34204;SDS011;20471;49.680;20.074;2022-10-18T09:35:04;4.83;;;3.85;;
34204;SDS011;20471;49.680;20.074;2022-10-18T09:37:46;9.55;;;4.50;;
34204;SDS011;20471;49.680;20.074;2022-10-18T09:40:18;7.25;;;4.28;;
34204;SDS011;20471;49.680;20.074;2022-10-18T09:42:58;5.10;;;4.00;;
34204;SDS011;20471;49.680;20.074;2022-10-18T09:45:35;6.60;;;4.20;;
34204;SDS011;20471;49.680;20.074;2022-10-18T09:48:19;9.50;;;4.67;;
34204;SDS011;20471;49.680;20.074;2022-10-18T09:51:11;5.33;;;4.50;;
34204;SDS011;20471;49.680;20.074;2022-10-18T09:53:53;7.33;;;4.42;;
34204;SDS011;20471;49.680;20.074;2022-10-18T09:56:49;8.30;;;5.37;;
34204;SDS011;20471;49.680;20.074;2022-10-18T09:59:33;8.80;;;5.90;;
34204;SDS011;20471;49.680;20.074;2022-10-18T10:02:18;7.75;;;4.92;;
34204;SDS011;20471;49.680;20.074;2022-10-18T10:04:46;8.28;;;4.97;;
34204;SDS011;20471;49.680;20.074;2022-10-18T10:07:15;10.50;;;4.33;;
34204;SDS011;20471;49.680;20.074;2022-10-18T10:10:04;5.72;;;4.60;;
34204;SDS011;20471;49.680;20.074;2022-10-18T10:12:30;7.97;;;4.92;;
34204;SDS011;20471;49.680;20.074;2022-10-18T10:20:41;7.22;;;4.70;;
34204;SDS011;20471;49.680;20.074;2022-10-18T10:26:00;11.68;;;4.80;;
34204;SDS011;20471;49.680;20.074;2022-10-18T10:28:32;6.42;;;4.95;;
34204;SDS011;20471;49.680;20.074;2022-10-18T10:34:16;10.10;;;4.30;;
34204;SDS011;20471;49.680;20.074;2022-10-18T10:36:46;6.87;;;4.83;;
34204;SDS011;20471;49.680;20.074;2022-10-18T10:39:16;9.28;;;5.00;;
34204;SDS011;20471;49.680;20.074;2022-10-18T10:41:49;8.20;;;4.85;;
34204;SDS011;20471;49.680;20.074;2022-10-18T10:44:23;6.37;;;4.17;;
34204;SDS011;20471;49.680;20.074;2022-10-18T10:46:53;9.35;;;4.97;;
34204;SDS011;20471;49.680;20.074;2022-10-18T10:51:53;9.33;;;4.83;;
34204;SDS011;20471;49.680;20.074;2022-10-18T10:54:25;8.45;;;4.42;;
34204;SDS011;20471;49.680;20.074;2022-10-18T10:56:55;5.05;;;4.50;;
34204;SDS011;20471;49.680;20.074;2022-10-18T10:59:42;5.80;;;4.67;;
34204;SDS011;20471;49.680;20.074;2022-10-18T11:04:50;7.75;;;4.30;;
34204;SDS011;20471;49.680;20.074;2022-10-18T11:12:42;21.10;;;6.05;;
34204;SDS011;20471;49.680;20.074;2022-10-18T11:15:34;5.92;;;4.20;;
34204;SDS011;20471;49.680;20.074;2022-10-18T11:18:24;6.37;;;4.30;;
34204;SDS011;20471;49.680;20.074;2022-10-18T11:21:07;5.75;;;3.92;;
34204;SDS011;20471;49.680;20.074;2022-10-18T11:23:52;3.55;;;2.67;;
34204;SDS011;20471;49.680;20.074;2022-10-18T11:38:04;2.65;;;1.40;;
34204;SDS011;20471;49.680;20.074;2022-10-18T11:43:54;3.65;;;1.72;;
34204;SDS011;20471;49.680;20.074;2022-10-18T11:46:44;4.53;;;1.95;;
34204;SDS011;20471;49.680;20.074;2022-10-18T11:52:27;5.05;;;1.92;;
34204;SDS011;20471;49.680;20.074;2022-10-18T12:01:19;5.65;;;2.27;;
34204;SDS011;20471;49.680;20.074;2022-10-18T12:04:07;7.90;;;2.33;;
34204;SDS011;20471;49.680;20.074;2022-10-18T12:06:51;3.20;;;1.80;;
34204;SDS011;20471;49.680;20.074;2022-10-18T12:09:43;4.58;;;2.20;;
34204;SDS011;20471;49.680;20.074;2022-10-18T12:14:51;2.60;;;2.00;;
34204;SDS011;20471;49.680;20.074;2022-10-18T12:20:04;2.83;;;1.87;;
34204;SDS011;20471;49.680;20.074;2022-10-18T12:22:49;2.05;;;1.85;;
34204;SDS011;20471;49.680;20.074;2022-10-18T12:25:37;5.30;;;2.20;;
34204;SDS011;20471;49.680;20.074;2022-10-18T12:28:07;4.97;;;2.00;;
34204;SDS011;20471;49.680;20.074;2022-10-18T12:40:04;3.58;;;2.08;;
34204;SDS011;20471;49.680;20.074;2022-10-18T12:42:41;4.20;;;1.90;;
34204;SDS011;20471;49.680;20.074;2022-10-18T12:48:00;5.28;;;2.05;;
34204;SDS011;20471;49.680;20.074;2022-10-18T12:55:46;4.55;;;2.45;;
34204;SDS011;20471;49.680;20.074;2022-10-18T13:00:55;3.87;;;2.65;;
34204;SDS011;20471;49.680;20.074;2022-10-18T13:03:36;2.50;;;2.25;;
34204;SDS011;20471;49.680;20.074;2022-10-18T13:06:05;3.05;;;2.00;;
34204;SDS011;20471;49.680;20.074;2022-10-18T13:08:37;5.17;;;2.17;;
34204;SDS011;20471;49.680;20.074;2022-10-18T13:16:47;3.05;;;2.10;;
34204;SDS011;20471;49.680;20.074;2022-10-18T13:19:30;2.50;;;2.10;;
34204;SDS011;20471;49.680;20.074;2022-10-18T13:33:27;2.15;;;1.95;;
34204;SDS011;20471;49.680;20.074;2022-10-18T13:41:27;4.97;;;2.40;;
34204;SDS011;20471;49.680;20.074;2022-10-18T13:44:21;7.12;;;2.65;;
34204;SDS011;20471;49.680;20.074;2022-10-18T14:04:08;2.55;;;2.17;;
34204;SDS011;20471;49.680;20.074;2022-10-18T14:06:36;3.62;;;2.42;;
34204;SDS011;20471;49.680;20.074;2022-10-18T14:09:17;4.00;;;2.00;;
34204;SDS011;20471;49.680;20.074;2022-10-18T14:11:51;4.62;;;2.33;;
34204;SDS011;20471;49.680;20.074;2022-10-18T14:14:31;3.47;;;2.00;;
34204;SDS011;20471;49.680;20.074;2022-10-18T14:17:13;4.95;;;2.25;;
34204;SDS011;20471;49.680;20.074;2022-10-18T14:23:13;3.42;;;2.52;;
34204;SDS011;20471;49.680;20.074;2022-10-18T14:25:45;3.08;;;2.58;;
34204;SDS011;20471;49.680;20.074;2022-10-18T14:41:23;5.53;;;3.30;;
34204;SDS011;20471;49.680;20.074;2022-10-18T14:46:45;4.33;;;3.27;;
34204;SDS011;20471;49.680;20.074;2022-10-18T14:49:15;4.55;;;3.27;;
34204;SDS011;20471;49.680;20.074;2022-10-18T14:51:45;3.70;;;2.65;;
34204;SDS011;20471;49.680;20.074;2022-10-18T14:54:16;5.95;;;2.80;;
34204;SDS011;20471;49.680;20.074;2022-10-18T14:56:51;5.62;;;3.02;;
34204;SDS011;20471;49.680;20.074;2022-10-18T14:59:20;3.98;;;2.92;;
34204;SDS011;20471;49.680;20.074;2022-10-18T15:04:27;6.40;;;3.52;;
34204;SDS011;20471;49.680;20.074;2022-10-18T15:07:03;5.42;;;3.58;;
34204;SDS011;20471;49.680;20.074;2022-10-18T15:09:29;6.58;;;3.27;;
34204;SDS011;20471;49.680;20.074;2022-10-18T15:12:00;4.20;;;3.50;;
34204;SDS011;20471;49.680;20.074;2022-10-18T15:14:29;5.47;;;3.72;;
34204;SDS011;20471;49.680;20.074;2022-10-18T15:17:01;9.98;;;3.50;;
34204;SDS011;20471;49.680;20.074;2022-10-18T15:19:35;9.00;;;4.05;;
34204;SDS011;20471;49.680;20.074;2022-10-18T15:22:07;4.97;;;3.92;;
34204;SDS011;20471;49.680;20.074;2022-10-18T15:24:35;5.97;;;3.72;;
34204;SDS011;20471;49.680;20.074;2022-10-18T15:29:52;6.55;;;3.87;;
34204;SDS011;20471;49.680;20.074;2022-10-18T15:32:23;6.42;;;3.90;;
34204;SDS011;20471;49.680;20.074;2022-10-18T15:34:54;5.70;;;3.37;;
34204;SDS011;20471;49.680;20.074;2022-10-18T15:37:44;6.62;;;3.70;;
34204;SDS011;20471;49.680;20.074;2022-10-18T15:42:57;9.10;;;3.70;;
34204;SDS011;20471;49.680;20.074;2022-10-18T15:45:32;6.37;;;3.87;;
34204;SDS011;20471;49.680;20.074;2022-10-18T15:58:55;9.68;;;4.50;;
34204;SDS011;20471;49.680;20.074;2022-10-18T16:01:42;9.68;;;4.47;;
34204;SDS011;20471;49.680;20.074;2022-10-18T16:04:19;6.80;;;4.78;;
34204;SDS011;20471;49.680;20.074;2022-10-18T16:06:49;9.48;;;4.55;;
34204;SDS011;20471;49.680;20.074;2022-10-18T16:09:18;12.98;;;5.28;;
34204;SDS011;20471;49.680;20.074;2022-10-18T16:11:46;23.83;;;16.12;;
34204;SDS011;20471;49.680;20.074;2022-10-18T16:14:17;17.10;;;7.03;;
34204;SDS011;20471;49.680;20.074;2022-10-18T16:16:45;17.82;;;10.60;;
34204;SDS011;20471;49.680;20.074;2022-10-18T16:19:16;17.37;;;9.33;;
34204;SDS011;20471;49.680;20.074;2022-10-18T16:21:49;30.72;;;17.12;;
34204;SDS011;20471;49.680;20.074;2022-10-18T16:24:18;23.15;;;9.23;;
34204;SDS011;20471;49.680;20.074;2022-10-18T16:26:45;18.62;;;8.95;;
34204;SDS011;20471;49.680;20.074;2022-10-18T16:29:17;21.95;;;8.38;;
34204;SDS011;20471;49.680;20.074;2022-10-18T16:31:48;25.25;;;11.70;;
34204;SDS011;20471;49.680;20.074;2022-10-18T16:34:18;27.67;;;14.43;;
34204;SDS011;20471;49.680;20.074;2022-10-18T16:36:44;23.10;;;12.65;;
34204;SDS011;20471;49.680;20.074;2022-10-18T16:39:13;27.55;;;14.05;;
34204;SDS011;20471;49.680;20.074;2022-10-18T16:41:42;35.80;;;15.72;;
34204;SDS011;20471;49.680;20.074;2022-10-18T16:44:09;35.75;;;19.20;;
34204;SDS011;20471;49.680;20.074;2022-10-18T16:46:36;33.42;;;15.50;;
34204;SDS011;20471;49.680;20.074;2022-10-18T16:49:03;34.45;;;17.42;;
34204;SDS011;20471;49.680;20.074;2022-10-18T16:51:30;31.35;;;15.23;;
34204;SDS011;20471;49.680;20.074;2022-10-18T16:53:57;17.62;;;11.35;;
34204;SDS011;20471;49.680;20.074;2022-10-18T16:56:25;20.90;;;12.80;;
34204;SDS011;20471;49.680;20.074;2022-10-18T16:58:55;22.60;;;13.05;;
34204;SDS011;20471;49.680;20.074;2022-10-18T17:01:23;33.67;;;18.87;;
34204;SDS011;20471;49.680;20.074;2022-10-18T17:03:51;38.13;;;19.77;;
34204;SDS011;20471;49.680;20.074;2022-10-18T17:06:25;29.23;;;15.25;;
34204;SDS011;20471;49.680;20.074;2022-10-18T17:08:55;35.98;;;16.35;;
34204;SDS011;20471;49.680;20.074;2022-10-18T17:11:23;50.55;;;19.98;;
34204;SDS011;20471;49.680;20.074;2022-10-18T17:13:51;29.65;;;13.08;;
34204;SDS011;20471;49.680;20.074;2022-10-18T17:16:22;24.50;;;12.65;;
34204;SDS011;20471;49.680;20.074;2022-10-18T17:18:54;20.35;;;10.80;;
34204;SDS011;20471;49.680;20.074;2022-10-18T17:21:24;19.02;;;10.78;;
34204;SDS011;20471;49.680;20.074;2022-10-18T17:23:52;18.07;;;8.83;;
34204;SDS011;20471;49.680;20.074;2022-10-18T17:26:21;16.55;;;9.40;;
34204;SDS011;20471;49.680;20.074;2022-10-18T17:28:49;19.12;;;8.28;;
34204;SDS011;20471;49.680;20.074;2022-10-18T17:31:24;14.90;;;9.20;;
34204;SDS011;20471;49.680;20.074;2022-10-18T17:33:51;18.95;;;10.38;;
34204;SDS011;20471;49.680;20.074;2022-10-18T17:36:20;22.87;;;12.20;;
34204;SDS011;20471;49.680;20.074;2022-10-18T17:38:50;18.65;;;11.65;;
34204;SDS011;20471;49.680;20.074;2022-10-18T17:41:20;14.90;;;9.25;;
34204;SDS011;20471;49.680;20.074;2022-10-18T17:43:48;16.20;;;9.03;;
34204;SDS011;20471;49.680;20.074;2022-10-18T17:46:15;12.20;;;7.75;;
34204;SDS011;20471;49.680;20.074;2022-10-18T17:48:44;16.20;;;8.43;;
34204;SDS011;20471;49.680;20.074;2022-10-18T17:51:12;14.93;;;8.40;;
34204;SDS011;20471;49.680;20.074;2022-10-18T17:53:41;11.83;;;7.67;;
34204;SDS011;20471;49.680;20.074;2022-10-18T17:56:08;13.28;;;8.18;;
34204;SDS011;20471;49.680;20.074;2022-10-18T17:58:37;14.38;;;9.05;;